createdAt,value
2024-03-25T00:01:12.818Z,99351.78
2024-03-25T00:02:36.768Z,99355.72
2024-03-25T00:03:59.367Z,99349.06
2024-03-25T00:05:25.984Z,99348.75
2024-03-25T00:06:47.206Z,99349.06
2024-03-25T00:08:11.236Z,99346.97
2024-03-25T00:09:36.885Z,99342.59
2024-03-25T00:11:02.539Z,99345.34
2024-03-25T00:12:23.104Z,99342.50
2024-03-25T00:13:45.315Z,99338.81
2024-03-25T00:15:10.995Z,99344.88
2024-03-25T00:16:31.970Z,99343.84
2024-03-25T00:17:56.447Z,99345.53
2024-03-25T00:19:24.863Z,99340.91
2024-03-25T00:20:45.695Z,99345.16
2024-03-25T00:22:06.710Z,99343.25
2024-03-25T00:23:37.012Z,99349.19
2024-03-25T00:24:56.841Z,99345.63
2024-03-25T00:26:27.182Z,99344.34
2024-03-25T00:28:33.825Z,99343.66
2024-03-25T00:29:39.370Z,99343.50
2024-03-25T00:31:43.308Z,99351.06
2024-03-25T00:33:22.333Z,99342.53
2024-03-25T00:34:43.211Z,99338.63
2024-03-25T00:36:29.583Z,99342.53
2024-03-25T00:37:55.572Z,99334.75
2024-03-25T00:39:17.224Z,99334.09
2024-03-25T00:40:50.719Z,99330.13
2024-03-25T00:42:22.798Z,99322.63
2024-03-25T00:43:44.100Z,99332.78
2024-03-25T00:45:10.526Z,99328.03
2024-03-25T00:46:32.874Z,99333.47
2024-03-25T00:47:55.857Z,99330.66
2024-03-25T00:49:17.879Z,99333.78
2024-03-25T00:50:38.473Z,99322.41
2024-03-25T00:51:59.360Z,99329.25
2024-03-25T00:53:20.668Z,99335.91
2024-03-25T00:54:41.565Z,99327.06
2024-03-25T00:56:02.103Z,99325.44
2024-03-25T00:57:26.249Z,99333.06
2024-03-25T00:58:46.820Z,99329.34
2024-03-25T01:00:08.181Z,99331.97
2024-03-25T01:01:38.839Z,99325.53
2024-03-25T01:02:59.645Z,99331.69
2024-03-25T01:04:26.696Z,99330.75
2024-03-25T01:05:47.654Z,99337.50
2024-03-25T01:07:30.343Z,99330.28
2024-03-25T01:08:56.138Z,99328.78
2024-03-25T01:10:18.699Z,99330.94
2024-03-25T01:11:42.514Z,99321.78
2024-03-25T01:13:02.813Z,99315.88
2024-03-25T01:14:23.591Z,99326.38
2024-03-25T01:15:43.875Z,99322.94
2024-03-25T01:17:04.360Z,99322.81
2024-03-25T01:18:25.476Z,99315.63
2024-03-25T01:19:46.384Z,99316.44
2024-03-25T01:21:07.769Z,99314.97
2024-03-25T01:22:29.071Z,99303.84
2024-03-25T01:23:49.668Z,99309.91
2024-03-25T01:25:11.696Z,99307.09
2024-03-25T01:26:32.494Z,99308.09
2024-03-25T01:27:52.790Z,99313.97
2024-03-25T01:29:14.487Z,99308.97
2024-03-25T01:30:39.280Z,99315.34
2024-03-25T01:32:00.379Z,99312.63
2024-03-25T01:33:21.790Z,99313.78
2024-03-25T01:34:44.117Z,99310.78
2024-03-25T01:36:06.008Z,99309.16
2024-03-25T01:37:27.456Z,99313.22
2024-03-25T01:38:49.020Z,99317.34
2024-03-25T01:40:12.490Z,99311.81
2024-03-25T01:41:32.699Z,99314.09
2024-03-25T01:42:56.878Z,99321.56
2024-03-25T01:44:18.118Z,99320.25
2024-03-25T01:45:39.284Z,99318.81
2024-03-25T01:47:04.885Z,99321.25
2024-03-25T01:48:25.579Z,99322.75
2024-03-25T01:49:47.242Z,99317.38
2024-03-25T01:51:08.368Z,99313.78
2024-03-25T01:52:29.145Z,99314.28
2024-03-25T01:53:50.297Z,99315.53
2024-03-25T01:55:20.308Z,99314.78
2024-03-25T01:56:42.211Z,99317.16
2024-03-25T01:58:03.709Z,99311.47
2024-03-25T01:59:24.926Z,99313.59
2024-03-25T02:00:45.990Z,99316.19
2024-03-25T02:02:07.510Z,99320.16
2024-03-25T02:03:39.622Z,99314.41
2024-03-25T02:05:01.034Z,99319.31
2024-03-25T02:06:22.753Z,99320.44
2024-03-25T02:08:21.427Z,99317.81
2024-03-25T02:09:40.072Z,99320.78
2024-03-25T02:11:03.619Z,99316.09
2024-03-25T02:12:30.452Z,99320.66
2024-03-25T02:13:52.072Z,99316.59
2024-03-25T02:15:13.562Z,99319.88
2024-03-25T02:16:34.646Z,99317.22
2024-03-25T02:17:55.254Z,99318.84
2024-03-25T02:19:16.235Z,99316.13
2024-03-25T02:20:40.930Z,99313.69
2024-03-25T02:22:07.147Z,99314.47
2024-03-25T02:23:27.339Z,99313.19
2024-03-25T02:27:16.980Z,99318.94
2024-03-25T02:28:37.731Z,99313.56
2024-03-25T02:30:03.205Z,99322.38
2024-03-25T02:31:23.986Z,99316.47
2024-03-25T02:32:45.588Z,99317.13
2024-03-25T02:34:17.578Z,99319.25
2024-03-25T02:35:39.610Z,99316.78
2024-03-25T02:37:08.996Z,99311.78
2024-03-25T02:38:33.091Z,99316.47
2024-03-25T02:40:01.108Z,99324.50
2024-03-25T02:41:27.758Z,99317.44
2024-03-25T02:42:52.508Z,99317.13
2024-03-25T02:44:17.094Z,99313.56
2024-03-25T02:45:38.239Z,99312.63
2024-03-25T02:46:58.320Z,99307.69
2024-03-25T02:48:22.038Z,99298.34
2024-03-25T02:49:51.993Z,99306.00
2024-03-25T02:51:12.371Z,99298.19
2024-03-25T02:52:38.447Z,99310.47
2024-03-25T02:53:58.481Z,99299.53
2024-03-25T02:55:19.500Z,99305.38
2024-03-25T02:56:41.880Z,99307.69
2024-03-25T02:58:01.883Z,99308.97
2024-03-25T02:59:25.805Z,99312.25
2024-03-25T03:00:45.874Z,99303.94
2024-03-25T03:02:06.826Z,99308.34
2024-03-25T03:03:42.625Z,99308.03
2024-03-25T03:05:14.175Z,99303.13
2024-03-25T03:06:37.853Z,99301.81
2024-03-25T03:07:59.169Z,99303.44
2024-03-25T03:09:25.442Z,99303.28
2024-03-25T03:10:47.177Z,99309.34
2024-03-25T03:12:08.702Z,99303.16
2024-03-25T03:13:29.289Z,99303.81
2024-03-25T03:14:52.845Z,99307.72
2024-03-25T03:16:16.480Z,99306.72
2024-03-25T03:17:40.974Z,99315.69
2024-03-25T03:19:02.062Z,99315.69
2024-03-25T03:20:22.957Z,99312.75
2024-03-25T03:21:44.500Z,99315.19
2024-03-25T03:23:05.914Z,99313.25
2024-03-25T03:24:27.207Z,99307.84
2024-03-25T03:25:47.270Z,99315.88
2024-03-25T03:27:08.907Z,99316.19
2024-03-25T03:28:30.035Z,99313.56
2024-03-25T03:29:51.934Z,99312.59
2024-03-25T03:31:20.995Z,99316.19
2024-03-25T03:32:47.652Z,99317.84
2024-03-25T03:34:09.574Z,99319.63
2024-03-25T03:35:36.009Z,99319.13
2024-03-25T03:36:56.797Z,99319.78
2024-03-25T03:38:16.860Z,99307.72
2024-03-25T03:39:37.328Z,99308.69
2024-03-25T03:41:01.891Z,99318.19
2024-03-25T03:42:25.064Z,99319.47
2024-03-25T03:43:46.200Z,99318.84
2024-03-25T03:45:10.882Z,99323.06
2024-03-25T03:46:31.985Z,99319.00
2024-03-25T03:47:53.161Z,99318.66
2024-03-25T03:49:14.502Z,99317.69
2024-03-25T03:50:37.819Z,99315.25
2024-03-25T03:52:09.509Z,99321.28
2024-03-25T03:53:33.267Z,99315.88
2024-03-25T03:54:55.070Z,99322.75
2024-03-25T03:56:17.294Z,99320.00
2024-03-25T03:57:39.339Z,99320.78
2024-03-25T03:59:00.138Z,99321.28
2024-03-25T04:00:23.476Z,99318.19
2024-03-25T04:01:45.047Z,99321.28
2024-03-25T04:03:04.841Z,99321.13
2024-03-25T04:04:25.229Z,99318.84
2024-03-25T04:05:48.258Z,99321.13
2024-03-25T04:07:08.635Z,99326.16
2024-03-25T04:08:31.419Z,99330.56
2024-03-25T04:09:59.929Z,99328.97
2024-03-25T04:11:20.350Z,99326.69
2024-03-25T04:12:40.447Z,99336.25
2024-03-25T04:14:19.913Z,99333.84
2024-03-25T04:17:49.244Z,99332.19
2024-03-25T04:19:13.356Z,99332.69
2024-03-25T04:20:41.232Z,99326.81
2024-03-25T04:22:11.503Z,99332.38
2024-03-25T04:23:39.145Z,99339.06
2024-03-25T04:24:59.912Z,99332.84
2024-03-25T04:26:19.622Z,99337.44
2024-03-25T04:27:41.326Z,99338.91
2024-03-25T04:29:01.850Z,99333.69
2024-03-25T04:30:26.237Z,99336.44
2024-03-25T04:31:50.108Z,99333.19
2024-03-25T04:33:14.668Z,99334.47
2024-03-25T04:36:52.085Z,99329.91
2024-03-25T04:38:18.562Z,99339.72
2024-03-25T04:39:39.267Z,99337.75
2024-03-25T04:41:23.117Z,99334.81
2024-03-25T04:42:46.731Z,99341.66
2024-03-25T04:44:22.847Z,99336.44
2024-03-25T04:45:49.381Z,99335.81
2024-03-25T04:47:09.907Z,99335.78
2024-03-25T04:48:31.316Z,99329.63
2024-03-25T04:49:52.629Z,99332.88
2024-03-25T04:51:14.313Z,99332.22
2024-03-25T04:52:34.638Z,99335.13
2024-03-25T04:53:55.656Z,99336.94
2024-03-25T04:55:15.921Z,99335.31
2024-03-25T04:56:36.833Z,99331.88
2024-03-25T04:57:58.051Z,99334.81
2024-03-25T04:59:19.123Z,99332.84
2024-03-25T05:00:42.811Z,99334.16
2024-03-25T05:02:04.152Z,99340.03
2024-03-25T05:03:25.177Z,99334.00
2024-03-25T05:04:46.066Z,99340.69
2024-03-25T05:06:09.734Z,99343.81
2024-03-25T05:07:31.234Z,99343.16
2024-03-25T05:08:51.796Z,99353.59
2024-03-25T05:10:15.657Z,99358.66
2024-03-25T05:11:36.992Z,99351.16
2024-03-25T05:13:38.364Z,99353.44
2024-03-25T05:14:52.201Z,99366.00
2024-03-25T05:16:28.482Z,99367.97
2024-03-25T05:17:48.230Z,99370.09
2024-03-25T05:19:11.300Z,99373.03
2024-03-25T05:20:34.131Z,99372.38
2024-03-25T05:21:54.875Z,99375.13
2024-03-25T05:23:16.143Z,99374.31
2024-03-25T05:25:15.327Z,99367.78
2024-03-25T05:26:48.312Z,99367.94
2024-03-25T05:28:14.111Z,99363.84
2024-03-25T05:29:35.482Z,99366.44
2024-03-25T05:31:02.644Z,99362.84
2024-03-25T05:32:23.978Z,99371.31
2024-03-25T05:34:16.580Z,99369.06
2024-03-25T05:35:41.692Z,99369.34
2024-03-25T05:37:12.422Z,99372.94
2024-03-25T05:38:33.216Z,99374.91
2024-03-25T05:39:53.412Z,99381.59
2024-03-25T05:41:17.343Z,99382.09
2024-03-25T05:42:38.965Z,99387.94
2024-03-25T05:43:59.474Z,99389.41
2024-03-25T05:45:22.417Z,99394.44
2024-03-25T05:46:45.720Z,99390.97
2024-03-25T05:48:08.856Z,99395.38
2024-03-25T05:49:50.897Z,99390.84
2024-03-25T05:52:27.985Z,99396.19
2024-03-25T05:53:57.451Z,99393.44
2024-03-25T05:55:47.632Z,99399.34
2024-03-25T05:57:14.694Z,99408.13
2024-03-25T05:59:20.933Z,99401.59
2024-03-25T06:00:48.722Z,99412.88
2024-03-25T06:05:05.248Z,99412.91
2024-03-25T06:06:29.601Z,99421.38
2024-03-25T06:09:04.441Z,99429.13
2024-03-25T06:10:56.946Z,99433.72
2024-03-25T06:12:26.056Z,99427.28
2024-03-25T06:13:55.511Z,99436.91
2024-03-25T06:15:33.357Z,99432.28
2024-03-25T06:19:54.459Z,99425.66
2024-03-25T06:22:14.952Z,99431.00
2024-03-25T06:24:19.685Z,99427.63
2024-03-25T06:25:43.056Z,99425.59
2024-03-25T06:27:29.634Z,99432.31
2024-03-25T06:29:37.718Z,99433.94
2024-03-25T06:31:24.252Z,99432.41
2024-03-25T06:36:03.455Z,99436.03
2024-03-25T06:39:29.835Z,99432.16
2024-03-25T06:41:40.569Z,99437.88
2024-03-25T06:43:00.298Z,99442.41
2024-03-25T06:44:23.715Z,99435.28
2024-03-25T06:45:43.692Z,99436.38
2024-03-25T06:47:09.941Z,99442.19
2024-03-25T06:48:34.966Z,99436.22
2024-03-25T06:50:37.076Z,99450.34
2024-03-25T06:52:07.127Z,99448.81
2024-03-25T06:54:03.277Z,99455.59
2024-03-25T06:55:36.638Z,99461.38
2024-03-25T06:56:59.035Z,99460.47
2024-03-25T06:58:26.351Z,99460.03
2024-03-25T07:00:02.506Z,99461.81
2024-03-25T07:01:35.953Z,99455.88
2024-03-25T07:04:44.631Z,99455.22
2024-03-25T07:06:05.896Z,99448.97
2024-03-25T07:07:41.287Z,99455.03
2024-03-25T07:09:01.769Z,99456.50
2024-03-25T07:10:29.191Z,99457.47
2024-03-25T07:12:41.684Z,99458.91
2024-03-25T07:14:02.555Z,99459.06
2024-03-25T07:16:13.414Z,99458.00
2024-03-25T07:17:47.160Z,99450.19
2024-03-25T07:19:09.590Z,99450.63
2024-03-25T07:20:54.153Z,99457.22
2024-03-25T07:22:19.170Z,99458.84
2024-03-25T07:23:44.070Z,99459.59
2024-03-25T07:25:05.685Z,99458.97
2024-03-25T07:26:27.494Z,99463.28
2024-03-25T07:27:57.379Z,99465.63
2024-03-25T07:29:26.888Z,99464.66
2024-03-25T07:30:48.606Z,99459.59
2024-03-25T07:32:09.942Z,99466.13
2024-03-25T07:33:31.000Z,99469.75
2024-03-25T07:34:52.183Z,99473.66
2024-03-25T07:36:12.993Z,99479.16
2024-03-25T07:37:34.453Z,99474.00
2024-03-25T07:38:55.606Z,99480.84
2024-03-25T07:42:37.429Z,99472.34
2024-03-25T07:44:28.726Z,99484.41
2024-03-25T07:45:45.298Z,99478.91
2024-03-25T07:47:07.003Z,99480.25
2024-03-25T07:48:28.423Z,99469.06
2024-03-25T07:49:49.346Z,99474.38
2024-03-25T07:51:10.839Z,99480.09
2024-03-25T07:52:31.666Z,99482.13
2024-03-25T07:53:52.724Z,99478.56
2024-03-25T07:55:13.211Z,99484.63
2024-03-25T07:56:37.272Z,99484.25
2024-03-25T07:57:57.989Z,99477.16
2024-03-25T07:59:19.552Z,99486.31
2024-03-25T08:00:41.062Z,99478.22
2024-03-25T08:02:01.066Z,99480.28
2024-03-25T08:03:21.361Z,99472.41
2024-03-25T08:04:42.215Z,99476.34
2024-03-25T08:06:03.860Z,99476.38
2024-03-25T08:07:24.886Z,99484.72
2024-03-25T08:08:45.996Z,99472.91
2024-03-25T08:10:05.821Z,99478.06
2024-03-25T08:11:26.937Z,99472.38
2024-03-25T08:12:48.811Z,99476.63
2024-03-25T08:14:09.654Z,99481.75
2024-03-25T08:15:30.346Z,99482.69
2024-03-25T08:16:52.527Z,99477.66
2024-03-25T08:18:15.520Z,99481.31
2024-03-25T08:19:36.322Z,99483.38
2024-03-25T08:20:57.137Z,99481.69
2024-03-25T08:22:19.004Z,99479.69
2024-03-25T08:23:38.881Z,99478.72
2024-03-25T08:25:00.520Z,99471.63
2024-03-25T08:26:21.004Z,99468.84
2024-03-25T08:27:42.757Z,99476.16
2024-03-25T08:29:04.286Z,99489.09
2024-03-25T08:30:25.422Z,99478.75
2024-03-25T08:31:48.596Z,99470.47
2024-03-25T08:33:09.804Z,99479.63
2024-03-25T08:34:31.087Z,99466.44
2024-03-25T08:35:52.179Z,99466.44
2024-03-25T08:37:13.452Z,99477.81
2024-03-25T08:38:34.006Z,99462.78
2024-03-25T08:39:54.987Z,99466.66
2024-03-25T08:41:16.262Z,99478.22
2024-03-25T08:42:36.539Z,99474.38
2024-03-25T08:43:57.088Z,99471.72
2024-03-25T08:45:18.638Z,99479.91
2024-03-25T08:46:39.285Z,99477.25
2024-03-25T08:48:01.108Z,99471.94
2024-03-25T08:49:22.199Z,99478.88
2024-03-25T08:50:44.394Z,99471.34
2024-03-25T08:52:06.006Z,99490.22
2024-03-25T08:53:27.320Z,99479.88
2024-03-25T08:54:48.855Z,99487.81
2024-03-25T08:56:10.050Z,99487.97
2024-03-25T08:57:30.815Z,99482.28
2024-03-25T08:58:54.970Z,99482.25
2024-03-25T09:00:18.907Z,99470.66
2024-03-25T09:01:40.830Z,99476.72
2024-03-25T09:03:01.365Z,99470.84
2024-03-25T09:04:27.921Z,99483.22
2024-03-25T09:05:49.178Z,99490.56
2024-03-25T09:07:11.007Z,99478.97
2024-03-25T09:08:52.632Z,99486.69
2024-03-25T09:10:32.127Z,99489.13
2024-03-25T09:11:52.571Z,99498.88
2024-03-25T09:13:15.515Z,99482.81
2024-03-25T09:14:38.881Z,99483.56
2024-03-25T09:15:59.288Z,99482.19
2024-03-25T09:17:20.871Z,99477.28
2024-03-25T09:18:42.603Z,99482.16
2024-03-25T09:20:04.957Z,99489.00
2024-03-25T09:21:27.719Z,99465.75
2024-03-25T09:22:51.050Z,99474.44
2024-03-25T09:24:12.344Z,99485.78
2024-03-25T09:25:39.248Z,99480.72
2024-03-25T09:27:04.183Z,99469.47
2024-03-25T09:28:31.374Z,99465.84
2024-03-25T09:29:57.392Z,99474.22
2024-03-25T09:31:19.464Z,99467.56
2024-03-25T09:32:40.542Z,99472.09
2024-03-25T09:34:04.309Z,99472.25
2024-03-25T09:35:24.940Z,99473.59
2024-03-25T09:36:45.126Z,99481.34
2024-03-25T09:38:10.293Z,99473.34
2024-03-25T09:39:34.229Z,99466.00
2024-03-25T09:40:54.928Z,99467.72
2024-03-25T09:42:26.455Z,99466.53
2024-03-25T09:43:53.731Z,99468.00
2024-03-25T09:45:17.438Z,99465.84
2024-03-25T09:46:37.167Z,99455.25
2024-03-25T09:47:57.771Z,99467.25
2024-03-25T09:49:18.965Z,99468.91
2024-03-25T09:50:40.461Z,99465.84
2024-03-25T09:52:00.843Z,99462.31
2024-03-25T09:53:21.559Z,99473.47
2024-03-25T09:54:41.766Z,99469.69
2024-03-25T09:56:03.576Z,99469.28
2024-03-25T09:57:24.121Z,99478.63
2024-03-25T09:58:45.214Z,99474.94
2024-03-25T10:00:07.611Z,99469.59
2024-03-25T10:01:29.221Z,99468.66
2024-03-25T10:02:52.011Z,99472.44
2024-03-25T10:04:14.536Z,99466.91
2024-03-25T10:05:37.284Z,99470.41
2024-03-25T10:07:00.764Z,99456.88
2024-03-25T10:08:26.581Z,99459.84
2024-03-25T10:09:47.713Z,99457.69
2024-03-25T10:11:10.891Z,99452.44
2024-03-25T10:12:31.912Z,99469.59
2024-03-25T10:13:56.403Z,99465.19
2024-03-25T10:15:18.030Z,99455.72
2024-03-25T10:16:41.250Z,99472.09
2024-03-25T10:18:02.194Z,99471.47
2024-03-25T10:19:24.678Z,99451.72
2024-03-25T10:20:53.271Z,99456.97
2024-03-25T10:22:15.296Z,99468.66
2024-03-25T10:23:40.718Z,99468.22
2024-03-25T10:25:01.912Z,99474.72
2024-03-25T10:26:31.900Z,99466.13
2024-03-25T10:27:59.292Z,99470.38
2024-03-25T10:29:18.987Z,99467.59
2024-03-25T10:30:41.123Z,99476.97
2024-03-25T10:32:02.081Z,99467.78
2024-03-25T10:33:25.243Z,99464.38
2024-03-25T10:34:47.011Z,99457.78
2024-03-25T10:36:15.259Z,99466.22
2024-03-25T10:37:37.116Z,99464.38
2024-03-25T10:39:04.287Z,99461.22
2024-03-25T10:40:29.339Z,99464.69
2024-03-25T10:41:51.535Z,99466.38
2024-03-25T10:43:13.889Z,99462.53
2024-03-25T10:44:34.356Z,99462.50
2024-03-25T10:45:57.549Z,99459.69
2024-03-25T10:47:25.873Z,99446.63
2024-03-25T10:49:04.287Z,99465.38
2024-03-25T10:50:32.363Z,99460.09
2024-03-25T10:51:54.707Z,99457.47
2024-03-25T10:53:21.141Z,99453.00
2024-03-25T10:54:44.248Z,99465.94
2024-03-25T10:56:05.648Z,99468.66
2024-03-25T10:57:29.250Z,99470.13
2024-03-25T10:58:51.344Z,99481.41
2024-03-25T11:00:15.240Z,99451.84
2024-03-25T11:01:38.679Z,99443.75
2024-03-25T11:03:03.298Z,99460.06
2024-03-25T11:04:25.614Z,99461.72
2024-03-25T11:05:46.860Z,99456.19
2024-03-25T11:07:15.145Z,99437.91
2024-03-25T11:08:36.506Z,99458.81
2024-03-25T11:10:07.507Z,99453.38
2024-03-25T11:11:35.388Z,99451.84
2024-03-25T11:12:57.161Z,99449.03
2024-03-25T11:14:19.021Z,99446.66
2024-03-25T11:15:47.157Z,99439.97
2024-03-25T11:17:16.673Z,99431.84
2024-03-25T11:18:39.390Z,99447.63
2024-03-25T11:20:18.269Z,99440.91
2024-03-25T11:21:40.048Z,99432.53
2024-03-25T11:23:10.165Z,99431.09
2024-03-25T11:24:40.100Z,99430.47
2024-03-25T11:26:02.997Z,99435.03
2024-03-25T11:27:40.265Z,99433.09
2024-03-25T11:29:01.420Z,99462.09
2024-03-25T11:30:26.704Z,99433.84
2024-03-25T11:31:50.451Z,99431.56
2024-03-25T11:33:12.263Z,99431.84
2024-03-25T11:34:33.993Z,99428.81
2024-03-25T11:35:55.660Z,99430.50
2024-03-25T11:37:16.748Z,99428.75
2024-03-25T11:38:43.456Z,99431.94
2024-03-25T11:40:07.092Z,99432.09
2024-03-25T11:41:30.358Z,99434.34
2024-03-25T11:42:52.189Z,99431.84
2024-03-25T11:44:12.946Z,99431.72
2024-03-25T11:45:34.778Z,99428.88
2024-03-25T11:46:57.135Z,99438.91
2024-03-25T11:48:17.757Z,99439.13
2024-03-25T11:49:40.675Z,99441.66
2024-03-25T11:51:05.648Z,99444.84
2024-03-25T11:52:32.773Z,99454.34
2024-03-25T11:53:54.890Z,99455.47
2024-03-25T11:55:21.034Z,99450.59
2024-03-25T11:56:44.786Z,99451.94
2024-03-25T11:58:06.491Z,99463.78
2024-03-25T11:59:28.211Z,99456.09
2024-03-25T12:00:51.959Z,99448.41
2024-03-25T12:02:14.158Z,99439.56
2024-03-25T12:03:42.671Z,99426.59
2024-03-25T12:05:04.592Z,99426.91
2024-03-25T12:06:24.737Z,99426.25
2024-03-25T12:07:45.175Z,99420.03
2024-03-25T12:09:24.169Z,99424.25
2024-03-25T12:11:04.115Z,99430.75
2024-03-25T12:12:25.855Z,99434.91
2024-03-25T12:13:47.628Z,99445.25
2024-03-25T12:15:08.697Z,99442.88
2024-03-25T12:16:32.128Z,99446.25
2024-03-25T12:17:54.041Z,99447.88
2024-03-25T12:19:16.186Z,99448.03
2024-03-25T12:20:38.317Z,99449.44
2024-03-25T12:22:04.408Z,99448.41
2024-03-25T12:23:31.295Z,99428.72
2024-03-25T12:24:53.164Z,99423.66
2024-03-25T12:26:15.079Z,99428.56
2024-03-25T12:27:37.998Z,99426.22
2024-03-25T12:29:00.354Z,99420.28
2024-03-25T12:30:20.756Z,99418.66
2024-03-25T12:31:41.721Z,99419.47
2024-03-25T12:33:02.817Z,99417.13
2024-03-25T12:34:25.982Z,99413.00
2024-03-25T12:35:51.751Z,99415.22
2024-03-25T12:37:16.976Z,99408.50
2024-03-25T12:38:36.678Z,99407.00
2024-03-25T12:40:00.295Z,99404.03
2024-03-25T12:41:23.343Z,99409.78
2024-03-25T12:42:44.283Z,99402.59
2024-03-25T12:44:05.260Z,99397.19
2024-03-25T12:45:25.943Z,99397.34
2024-03-25T12:46:46.145Z,99402.94
2024-03-25T12:48:08.243Z,99405.81
2024-03-25T12:49:27.961Z,99399.13
2024-03-25T12:50:48.938Z,99398.13
2024-03-25T12:52:09.409Z,99401.84
2024-03-25T12:53:31.136Z,99394.53
2024-03-25T12:54:52.517Z,99397.25
2024-03-25T12:56:13.426Z,99396.88
2024-03-25T12:57:35.440Z,99404.53
2024-03-25T12:58:56.351Z,99391.53
2024-03-25T13:00:18.160Z,99384.50
2024-03-25T13:01:39.037Z,99383.88
2024-03-25T13:03:00.380Z,99390.75
2024-03-25T13:04:22.985Z,99389.56
2024-03-25T13:05:47.211Z,99399.09
2024-03-25T13:07:09.847Z,99392.00
2024-03-25T13:08:30.973Z,99398.81
2024-03-25T13:09:52.519Z,99389.03
2024-03-25T13:11:18.150Z,99380.09
2024-03-25T13:12:40.031Z,99377.28
2024-03-25T13:14:01.100Z,99387.06
2024-03-25T13:15:22.596Z,99384.25
2024-03-25T13:16:45.411Z,99382.72
2024-03-25T13:18:07.260Z,99390.72
2024-03-25T13:19:29.453Z,99378.84
2024-03-25T13:20:51.266Z,99382.16
2024-03-25T13:22:17.232Z,99377.53
2024-03-25T13:23:39.794Z,99378.00
2024-03-25T13:25:01.427Z,99381.63
2024-03-25T13:26:21.456Z,99382.75
2024-03-25T13:27:42.423Z,99376.88
2024-03-25T13:29:03.135Z,99375.41
2024-03-25T13:30:25.107Z,99377.84
2024-03-25T13:31:47.355Z,99384.47
2024-03-25T13:33:10.002Z,99401.59
2024-03-25T13:34:32.145Z,99378.56
2024-03-25T13:35:53.877Z,99382.75
2024-03-25T13:37:15.413Z,99371.72
2024-03-25T13:38:37.128Z,99371.41
2024-03-25T13:39:58.851Z,99378.22
2024-03-25T13:41:22.885Z,99380.09
2024-03-25T13:42:47.427Z,99382.53
2024-03-25T13:44:08.663Z,99373.09
2024-03-25T13:45:29.556Z,99396.50
2024-03-25T13:46:51.975Z,99387.22
2024-03-25T13:48:13.576Z,99384.31
2024-03-25T13:49:37.933Z,99380.88
2024-03-25T13:51:15.842Z,99380.88
2024-03-25T13:52:39.612Z,99386.59
2024-03-25T13:54:00.476Z,99379.59
2024-03-25T13:55:22.414Z,99393.31
2024-03-25T13:56:44.342Z,99375.63
2024-03-25T13:58:07.236Z,99386.97
2024-03-25T13:59:27.700Z,99379.31
2024-03-25T14:00:49.231Z,99383.69
2024-03-25T14:02:10.767Z,99365.72
2024-03-25T14:03:31.052Z,99382.56
2024-03-25T14:04:52.186Z,99376.75
2024-03-25T14:06:13.062Z,99376.19
2024-03-25T14:07:33.298Z,99368.38
2024-03-25T14:08:55.685Z,99374.00
2024-03-25T14:10:17.718Z,99372.59
2024-03-25T14:11:40.214Z,99379.16
2024-03-25T14:13:01.322Z,99389.81
2024-03-25T14:14:22.564Z,99387.16
2024-03-25T14:15:44.099Z,99401.19
2024-03-25T14:17:06.070Z,99395.41
2024-03-25T14:18:27.647Z,99395.66
2024-03-25T14:19:53.987Z,99397.59
2024-03-25T14:21:15.535Z,99402.03
2024-03-25T14:22:37.690Z,99410.97
2024-03-25T14:23:59.076Z,99391.03
2024-03-25T14:25:20.280Z,99390.84
2024-03-25T14:26:42.754Z,99397.63
2024-03-25T14:28:05.793Z,99393.59
2024-03-25T14:29:26.626Z,99401.56
2024-03-25T14:30:49.535Z,99398.88
2024-03-25T14:32:10.580Z,99391.63
2024-03-25T14:33:33.680Z,99406.84
2024-03-25T14:34:56.053Z,99400.94
2024-03-25T14:36:18.552Z,99403.22
2024-03-25T14:37:39.128Z,99410.97
2024-03-25T14:38:58.738Z,99414.66
2024-03-25T14:40:20.085Z,99405.16
2024-03-25T14:41:41.045Z,99402.47
2024-03-25T14:43:02.474Z,99407.56
2024-03-25T14:44:24.057Z,99404.88
2024-03-25T14:45:44.617Z,99408.53
2024-03-25T14:47:06.490Z,99411.31
2024-03-25T14:48:27.441Z,99417.56
2024-03-25T14:49:52.373Z,99419.06
2024-03-25T14:51:13.395Z,99410.38
2024-03-25T14:52:35.402Z,99409.88
2024-03-25T14:53:57.488Z,99413.06
2024-03-25T14:55:17.614Z,99422.09
2024-03-25T14:56:38.266Z,99405.09
2024-03-25T14:57:59.511Z,99411.38
2024-03-25T14:59:27.784Z,99422.06
2024-03-25T15:00:49.370Z,99428.69
2024-03-25T15:02:13.384Z,99455.75
2024-03-25T15:03:47.150Z,99434.59
2024-03-25T15:05:09.448Z,99429.16
2024-03-25T15:06:30.059Z,99446.69
2024-03-25T15:07:50.489Z,99430.81
2024-03-25T15:09:15.005Z,99434.81
2024-03-25T15:10:36.397Z,99431.13
2024-03-25T15:11:58.373Z,99437.28
2024-03-25T15:13:19.594Z,99442.44
2024-03-25T15:14:40.368Z,99437.56
2024-03-25T15:16:06.469Z,99442.16
2024-03-25T15:17:29.754Z,99440.63
2024-03-25T15:18:55.628Z,99443.03
2024-03-25T15:20:25.333Z,99434.69
2024-03-25T15:21:48.144Z,99437.66
2024-03-25T15:23:16.727Z,99437.09
2024-03-25T15:24:38.609Z,99432.59
2024-03-25T15:26:02.469Z,99432.06
2024-03-25T15:27:26.030Z,99435.63
2024-03-25T15:28:50.105Z,99441.06
2024-03-25T15:30:10.527Z,99438.34
2024-03-25T15:31:30.766Z,99442.91
2024-03-25T15:32:50.581Z,99430.56
2024-03-25T15:34:11.572Z,99433.59
2024-03-25T15:35:34.550Z,99439.53
2024-03-25T15:36:56.646Z,99442.22
2024-03-25T15:40:24.446Z,99441.63
2024-03-25T15:41:55.621Z,99437.94
2024-03-25T15:43:19.338Z,99437.00
2024-03-25T15:44:40.586Z,99443.72
2024-03-25T15:46:08.317Z,99446.09
2024-03-25T15:47:32.943Z,99445.66
2024-03-25T15:48:54.946Z,99443.72
2024-03-25T15:50:17.661Z,99447.09
2024-03-25T15:51:42.958Z,99458.75
2024-03-25T15:53:04.606Z,99446.66
2024-03-25T15:54:30.146Z,99453.09
2024-03-25T15:55:53.641Z,99450.69
2024-03-25T15:57:15.436Z,99445.06
2024-03-25T15:59:02.391Z,99459.03
2024-03-25T16:00:22.276Z,99454.19
2024-03-25T16:01:43.015Z,99452.56
2024-03-25T16:03:04.317Z,99461.13
2024-03-25T16:04:53.038Z,99452.09
2024-03-25T16:06:23.446Z,99453.19
2024-03-25T16:08:43.575Z,99449.56
2024-03-25T16:10:05.860Z,99459.13
2024-03-25T16:11:27.459Z,99449.22
2024-03-25T16:12:49.643Z,99456.63
2024-03-25T16:14:11.880Z,99469.38
2024-03-25T16:15:37.313Z,99457.00
2024-03-25T16:16:58.243Z,99464.50
2024-03-25T16:18:22.708Z,99468.34
2024-03-25T16:19:44.757Z,99473.00
2024-03-25T16:21:18.716Z,99462.16
2024-03-25T16:22:39.316Z,99468.69
2024-03-25T16:24:00.776Z,99470.47
2024-03-25T16:25:44.279Z,99468.94
2024-03-25T16:27:05.552Z,99467.72
2024-03-25T16:28:25.746Z,99473.16
2024-03-25T16:29:46.702Z,99471.53
2024-03-25T16:31:07.594Z,99472.78
2024-03-25T16:32:37.743Z,99474.88
2024-03-25T16:33:59.693Z,99473.50
2024-03-25T16:35:23.160Z,99481.56
2024-03-25T16:36:44.253Z,99466.13
2024-03-25T16:38:05.529Z,99467.81
2024-03-25T16:39:28.259Z,99477.97
2024-03-25T16:40:50.402Z,99467.72
2024-03-25T16:42:15.714Z,99475.53
2024-03-25T16:43:37.548Z,99477.38
2024-03-25T16:45:00.587Z,99475.34
2024-03-25T16:46:21.035Z,99466.50
2024-03-25T16:47:44.912Z,99472.47
2024-03-25T16:49:06.447Z,99477.06
2024-03-25T16:50:28.192Z,99470.59
2024-03-25T16:52:44.689Z,99484.56
2024-03-25T16:54:06.298Z,99496.63
2024-03-25T16:55:53.800Z,99498.28
2024-03-25T16:57:18.398Z,99508.16
2024-03-25T16:58:46.010Z,99504.47
2024-03-25T17:00:47.321Z,99509.31
2024-03-25T17:02:47.103Z,99505.66